createdAt,value
2023-04-02T00:01:00.857Z,71.52
2023-04-02T00:04:05.692Z,72.17
2023-04-02T00:06:34.821Z,71.60
2023-04-02T00:09:23.075Z,70.58
2023-04-02T00:11:55.735Z,71.09
2023-04-02T00:14:31.240Z,70.30
2023-04-02T00:17:00.166Z,69.55
2023-04-02T00:19:47.174Z,71.01
2023-04-02T00:22:19.668Z,71.21
2023-04-02T00:24:46.912Z,70.47
2023-04-02T00:27:14.785Z,70.93
2023-04-02T00:29:52.781Z,70.71
2023-04-02T00:32:28.735Z,70.19
2023-04-02T00:34:55.856Z,69.63
2023-04-02T00:37:25.132Z,69.90
2023-04-02T00:40:07.100Z,69.82
2023-04-02T00:42:35.337Z,69.72
2023-04-02T00:45:02.348Z,68.48
2023-04-02T00:47:33.683Z,69.55
2023-04-02T00:50:03.445Z,70.76
2023-04-02T00:52:31.963Z,70.90
2023-04-02T00:55:24.889Z,71.46
2023-04-02T00:57:51.991Z,70.80
2023-04-02T01:00:29.283Z,71.37
2023-04-02T01:03:28.962Z,70.72
2023-04-02T01:06:10.814Z,70.94
2023-04-02T01:08:59.321Z,71.47
2023-04-02T01:11:44.653Z,71.86
2023-04-02T01:14:26.404Z,72.00
2023-04-02T01:17:18.447Z,70.57
2023-04-02T01:19:58.492Z,69.94
2023-04-02T01:22:35.164Z,69.30
2023-04-02T01:25:04.566Z,68.73
2023-04-02T01:27:58.712Z,68.86
2023-04-02T01:30:25.607Z,68.72
2023-04-02T01:32:52.773Z,68.20
2023-04-02T01:35:19.544Z,68.63
2023-04-02T01:37:49.879Z,69.62
2023-04-02T01:40:19.538Z,68.77
2023-04-02T01:43:07.897Z,69.07
2023-04-02T01:45:35.574Z,69.02
2023-04-02T01:48:09.264Z,69.77
2023-04-02T01:50:37.979Z,68.61
2023-04-02T01:53:07.473Z,67.90
2023-04-02T01:55:43.015Z,68.80
2023-04-02T01:58:11.441Z,69.57
2023-04-02T02:00:45.760Z,69.24
2023-04-02T02:03:13.007Z,68.74
2023-04-02T02:05:40.222Z,68.27
2023-04-02T02:08:17.066Z,68.83
2023-04-02T02:10:43.587Z,68.49
2023-04-02T02:13:15.937Z,68.88
2023-04-02T02:15:42.492Z,69.48
2023-04-02T02:18:11.330Z,68.71
2023-04-02T02:20:37.848Z,68.72
2023-04-02T02:23:05.542Z,67.92
2023-04-02T02:25:34.392Z,68.63
2023-04-02T02:28:21.871Z,67.18
2023-04-02T02:30:52.832Z,67.94
2023-04-02T02:33:29.280Z,67.74
2023-04-02T02:36:16.572Z,68.14
2023-04-02T02:38:54.643Z,68.43
2023-04-02T02:41:24.583Z,67.61
2023-04-02T02:44:12.976Z,69.92
2023-04-02T02:46:44.344Z,67.79
2023-04-02T02:49:16.015Z,68.56
2023-04-02T02:52:03.985Z,68.71
2023-04-02T02:54:31.658Z,68.49
2023-04-02T02:57:01.819Z,68.31
2023-04-02T02:59:29.932Z,67.27
2023-04-02T03:01:57.023Z,68.46
2023-04-02T03:04:24.288Z,66.99
2023-04-02T03:06:57.010Z,68.03
2023-04-02T03:09:33.453Z,68.90
2023-04-02T03:12:06.619Z,69.08
2023-04-02T03:14:37.099Z,68.38
2023-04-02T03:17:10.345Z,68.93
2023-04-02T03:20:06.422Z,68.70
2023-04-02T03:22:43.991Z,68.56
2023-04-02T03:25:30.936Z,67.44
2023-04-02T03:28:05.005Z,67.28
2023-04-02T03:30:44.745Z,67.42
2023-04-02T03:33:23.136Z,66.85
2023-04-02T03:36:21.203Z,67.00
2023-04-02T03:38:55.618Z,66.49
2023-04-02T03:41:28.173Z,66.14
2023-04-02T03:43:58.655Z,66.41
2023-04-02T03:46:46.290Z,66.20
2023-04-02T03:49:19.437Z,65.80
2023-04-02T03:52:01.040Z,65.93
2023-04-02T03:54:28.422Z,65.90
2023-04-02T03:56:55.073Z,65.82
2023-04-02T03:59:47.524Z,65.61
2023-04-02T04:02:26.391Z,64.82
2023-04-02T04:04:54.720Z,64.52
2023-04-02T04:07:34.731Z,64.17
2023-04-02T04:10:02.382Z,64.83
2023-04-02T04:12:32.860Z,65.28
2023-04-02T04:15:28.565Z,65.66
2023-04-02T04:18:13.835Z,66.06
2023-04-02T04:20:42.094Z,66.72
2023-04-02T04:23:22.282Z,65.77
2023-04-02T04:25:57.646Z,66.60
2023-04-02T04:28:31.209Z,65.26
2023-04-02T04:31:01.138Z,66.23
2023-04-02T04:33:43.720Z,65.46
2023-04-02T04:36:27.852Z,64.95
2023-04-02T04:38:59.514Z,65.68
2023-04-02T04:41:30.694Z,65.41
2023-04-02T04:44:01.465Z,65.35
2023-04-02T04:47:08.208Z,65.83
2023-04-02T04:49:45.677Z,66.38
2023-04-02T04:52:18.598Z,67.39
2023-04-02T04:54:45.999Z,66.47
2023-04-02T04:57:42.189Z,66.32
2023-04-02T05:00:20.695Z,66.41
2023-04-02T05:02:52.024Z,67.42
2023-04-02T05:05:24.652Z,66.80
2023-04-02T05:07:59.108Z,66.59
2023-04-02T05:10:51.816Z,64.85
2023-04-02T05:13:25.685Z,63.88
2023-04-02T05:16:05.643Z,65.65
2023-04-02T05:18:51.353Z,64.93
2023-04-02T05:21:37.900Z,65.99
2023-04-02T05:24:35.887Z,65.40
2023-04-02T05:27:09.515Z,64.33
2023-04-02T05:29:38.846Z,64.89
2023-04-02T05:32:28.564Z,64.53
2023-04-02T05:34:57.399Z,64.12
2023-04-02T05:37:27.454Z,66.70
2023-04-02T05:39:56.674Z,65.86
2023-04-02T05:42:25.650Z,64.78
2023-04-02T05:45:27.793Z,65.82
2023-04-02T05:48:01.807Z,64.59
2023-04-02T05:50:37.520Z,63.70
2023-04-02T05:53:12.590Z,63.66
2023-04-02T05:55:51.444Z,63.01
2023-04-02T05:58:37.322Z,62.48
2023-04-02T06:01:29.545Z,62.05
2023-04-02T06:04:23.693Z,63.08
2023-04-02T06:06:59.569Z,62.99
2023-04-02T06:09:43.192Z,63.20
2023-04-02T06:12:21.823Z,63.73
2023-04-02T06:14:48.528Z,62.63
2023-04-02T06:17:17.050Z,63.03
2023-04-02T06:19:43.847Z,62.17
2023-04-02T06:22:30.910Z,61.18
2023-04-02T06:25:22.820Z,61.60
2023-04-02T06:27:50.623Z,61.34
2023-04-02T06:30:19.690Z,61.32
2023-04-02T06:32:46.152Z,60.75
2023-04-02T06:35:14.084Z,60.63
2023-04-02T06:37:43.445Z,61.89
2023-04-02T06:40:28.414Z,61.78
2023-04-02T06:42:59.624Z,62.11
2023-04-02T06:45:30.298Z,61.36
2023-04-02T06:47:57.952Z,62.65
2023-04-02T06:50:46.366Z,61.90
2023-04-02T06:53:29.166Z,60.89
2023-04-02T06:56:34.857Z,60.55
2023-04-02T06:59:04.427Z,59.79
2023-04-02T07:01:32.659Z,60.93
2023-04-02T07:03:59.669Z,59.74
2023-04-02T07:06:26.195Z,61.46
2023-04-02T07:08:52.759Z,60.70
2023-04-02T07:11:21.608Z,60.90
2023-04-02T07:13:49.357Z,60.66
2023-04-02T07:16:21.137Z,60.18
2023-04-02T07:18:48.705Z,60.01
2023-04-02T07:21:15.554Z,60.16
2023-04-02T07:23:42.063Z,60.21
2023-04-02T07:26:13.970Z,59.56
2023-04-02T07:28:40.828Z,59.80
2023-04-02T07:31:19.137Z,59.63
2023-04-02T07:33:46.021Z,61.46
2023-04-02T07:36:17.986Z,60.04
2023-04-02T07:38:44.746Z,60.48
2023-04-02T07:41:11.593Z,59.66
2023-04-02T07:43:38.780Z,59.53
2023-04-02T07:46:06.407Z,60.68
2023-04-02T07:48:33.044Z,59.94
2023-04-02T07:51:00.488Z,59.03
2023-04-02T07:53:34.629Z,59.52
2023-04-02T07:56:02.937Z,58.80
2023-04-02T07:58:31.987Z,59.64
2023-04-02T08:00:59.032Z,59.12
2023-04-02T08:03:25.728Z,57.95
2023-04-02T08:05:54.702Z,58.53
2023-04-02T08:08:22.945Z,58.48
2023-04-02T08:10:50.322Z,58.95
2023-04-02T08:13:18.166Z,58.86
2023-04-02T08:15:44.766Z,57.67
2023-04-02T08:18:12.033Z,57.84
2023-04-02T08:20:38.679Z,57.07
2023-04-02T08:23:06.987Z,56.93
2023-04-02T08:26:17.031Z,56.47
2023-04-02T08:29:24.665Z,57.44
2023-04-02T08:32:31.940Z,57.72
2023-04-02T08:35:39.587Z,57.37
2023-04-02T08:38:47.062Z,58.18
2023-04-02T08:42:03.337Z,57.44
2023-04-02T08:45:52.240Z,56.83
2023-04-02T08:49:01.972Z,56.21
2023-04-02T08:52:25.610Z,54.96
2023-04-02T08:55:36.190Z,54.42
2023-04-02T08:58:47.449Z,53.73
2023-04-02T09:02:00.711Z,54.33
2023-04-02T09:05:20.676Z,53.48
2023-04-02T09:08:29.911Z,53.70
2023-04-02T09:11:41.180Z,54.15
2023-04-02T09:14:54.335Z,53.72
2023-04-02T09:18:16.471Z,53.64
2023-04-02T09:21:32.910Z,52.08
2023-04-02T09:24:40.056Z,51.67
2023-04-02T09:27:50.176Z,52.11
2023-04-02T09:31:02.097Z,52.62
2023-04-02T09:34:29.686Z,52.91
2023-04-02T09:37:37.346Z,53.66
2023-04-02T09:40:53.593Z,53.13
2023-04-02T09:44:32.027Z,52.49
2023-04-02T09:47:40.928Z,52.42
2023-04-02T09:50:49.650Z,53.21
2023-04-02T09:54:03.120Z,52.43
2023-04-02T09:57:28.001Z,51.25
2023-04-02T10:00:35.438Z,52.38
2023-04-02T10:03:43.000Z,51.29
2023-04-02T10:06:50.770Z,51.68
2023-04-02T10:09:59.331Z,50.58
2023-04-02T10:13:29.433Z,51.43
2023-04-02T10:16:42.442Z,51.00
2023-04-02T10:19:52.558Z,50.31
2023-04-02T10:22:59.863Z,51.21
2023-04-02T10:26:37.924Z,50.64
2023-04-02T10:30:11.265Z,49.38
2023-04-02T10:33:25.397Z,49.82
2023-04-02T10:36:55.358Z,49.57
2023-04-02T10:40:32.459Z,50.09
2023-04-02T10:44:03.627Z,49.65
2023-04-02T10:47:33.468Z,49.56
2023-04-02T10:50:51.763Z,49.60
2023-04-02T10:54:28.326Z,49.03
2023-04-02T10:57:40.706Z,48.43
2023-04-02T11:00:50.676Z,49.53
2023-04-02T11:04:05.980Z,49.36
2023-04-02T11:07:20.633Z,50.10
2023-04-02T11:10:30.679Z,49.16
2023-04-02T11:13:57.483Z,48.15
2023-04-02T11:17:04.654Z,47.82
2023-04-02T11:20:49.056Z,47.21
2023-04-02T11:24:06.219Z,49.58
2023-04-02T11:27:16.446Z,48.42
2023-04-02T11:30:26.190Z,47.39
2023-04-02T11:33:44.688Z,47.45
2023-04-02T11:36:53.773Z,48.25
2023-04-02T11:40:10.984Z,46.92
2023-04-02T11:43:34.695Z,48.39
2023-04-02T11:46:42.868Z,48.43
2023-04-02T11:50:01.529Z,48.43
2023-04-02T11:53:11.898Z,48.18
2023-04-02T11:57:00.828Z,47.60
2023-04-02T12:00:32.838Z,47.95
2023-04-02T12:04:01.567Z,47.44
2023-04-02T12:07:27.943Z,46.91
2023-04-02T12:10:58.844Z,46.98
2023-04-02T12:14:45.818Z,45.09
2023-04-02T12:17:53.466Z,44.41
2023-04-02T12:21:01.245Z,43.95
2023-04-02T12:24:24.056Z,43.28
2023-04-02T12:27:31.643Z,43.09
2023-04-02T12:30:38.903Z,42.32
2023-04-02T12:33:46.280Z,42.38
2023-04-02T12:37:02.648Z,42.79
2023-04-02T12:40:17.250Z,43.97
2023-04-02T12:43:29.593Z,44.31
2023-04-02T12:46:36.915Z,41.60
2023-04-02T12:49:44.811Z,41.48
2023-04-02T12:52:54.801Z,40.86
2023-04-02T12:56:02.840Z,38.41
2023-04-02T12:59:36.006Z,39.71
2023-04-02T13:02:45.255Z,39.86
2023-04-02T13:05:57.009Z,39.68
2023-04-02T13:09:06.655Z,38.25
2023-04-02T13:12:32.656Z,39.66
2023-04-02T13:15:39.805Z,39.19
2023-04-02T13:18:48.961Z,39.30
2023-04-02T13:21:57.643Z,38.44
2023-04-02T13:25:04.965Z,38.83
2023-04-02T13:28:12.169Z,38.25
2023-04-02T13:31:19.351Z,38.65
2023-04-02T13:34:27.763Z,38.64
2023-04-02T13:37:35.200Z,39.62
2023-04-02T13:40:42.461Z,40.39
2023-04-02T13:43:50.758Z,40.33
2023-04-02T13:46:59.942Z,39.40
2023-04-02T13:50:08.365Z,39.89
2023-04-02T13:53:22.533Z,40.65
2023-04-02T13:56:29.740Z,41.56
2023-04-02T13:59:36.938Z,41.09
2023-04-02T14:02:51.786Z,40.40
2023-04-02T14:06:21.717Z,39.20
2023-04-02T14:09:41.020Z,40.34
2023-04-02T14:13:10.138Z,38.69
2023-04-02T14:16:48.266Z,39.86
2023-04-02T14:20:34.960Z,38.07
2023-04-02T14:23:54.698Z,38.96
2023-04-02T14:27:03.059Z,38.75
2023-04-02T14:30:21.927Z,38.35
2023-04-02T14:33:48.412Z,39.75
2023-04-02T14:37:01.504Z,39.07
2023-04-02T14:40:19.701Z,38.30
2023-04-02T14:43:31.865Z,38.62
2023-04-02T14:46:42.447Z,38.78
2023-04-02T14:49:54.693Z,38.65
2023-04-02T14:53:07.602Z,39.46
2023-04-02T14:56:16.146Z,39.93
2023-04-02T14:59:31.184Z,40.11
2023-04-02T15:02:46.490Z,42.13
2023-04-02T15:06:03.349Z,40.66
2023-04-02T15:09:15.665Z,39.07
2023-04-02T15:12:27.007Z,40.08
2023-04-02T15:15:40.423Z,39.52
2023-04-02T15:18:58.635Z,39.99
2023-04-02T15:22:27.636Z,38.95
2023-04-02T15:26:18.158Z,40.40
2023-04-02T15:29:47.477Z,40.85
2023-04-02T15:32:57.725Z,40.82
2023-04-02T15:36:21.415Z,40.45
2023-04-02T15:39:37.541Z,40.42
2023-04-02T15:42:57.386Z,40.39
2023-04-02T15:46:40.012Z,40.03
2023-04-02T15:49:58.250Z,39.42
2023-04-02T15:53:33.042Z,40.49
2023-04-02T15:56:43.900Z,41.10
2023-04-02T16:00:28.212Z,41.95
2023-04-02T16:03:50.530Z,42.21
2023-04-02T16:07:14.297Z,41.68
2023-04-02T16:10:45.912Z,41.41
2023-04-02T16:14:04.118Z,40.91
2023-04-02T16:17:34.197Z,40.59
2023-04-02T16:20:46.639Z,40.85
2023-04-02T16:23:53.813Z,41.70
2023-04-02T16:27:17.427Z,42.20
2023-04-02T16:30:41.799Z,43.01
2023-04-02T16:34:07.349Z,42.74
2023-04-02T16:37:35.511Z,42.48
2023-04-02T16:41:08.673Z,42.53
2023-04-02T16:44:19.306Z,43.11
2023-04-02T16:48:06.495Z,43.91
2023-04-02T16:51:16.368Z,44.00
2023-04-02T16:54:48.331Z,44.77
2023-04-02T16:58:02.199Z,44.30
2023-04-02T17:01:12.336Z,44.78
2023-04-02T17:04:28.776Z,45.00
2023-04-02T17:07:44.343Z,44.73
2023-04-02T17:11:01.686Z,44.50
2023-04-02T17:14:20.313Z,45.40
2023-04-02T17:17:27.749Z,44.93
2023-04-02T17:20:35.177Z,45.07
2023-04-02T17:24:02.601Z,45.31
2023-04-02T17:27:37.759Z,45.56
2023-04-02T17:30:48.102Z,45.42
2023-04-02T17:33:55.520Z,45.47
2023-04-02T17:37:18.517Z,45.56
2023-04-02T17:40:43.660Z,46.06
2023-04-02T17:44:28.401Z,45.91
2023-04-02T17:47:43.129Z,45.28
2023-04-02T17:50:56.081Z,46.01
2023-04-02T17:54:12.530Z,46.07
2023-04-02T17:57:32.257Z,46.70
2023-04-02T18:00:45.775Z,45.37
2023-04-02T18:03:54.810Z,44.93
2023-04-02T18:07:12.813Z,44.59
2023-04-02T18:10:25.385Z,44.20
2023-04-02T18:13:07.774Z,43.77
2023-04-02T18:15:47.850Z,44.33
2023-04-02T18:18:36.321Z,44.72
2023-04-02T18:21:37.690Z,45.21
2023-04-02T18:24:42.699Z,45.39
2023-04-02T18:27:34.606Z,45.52
2023-04-02T18:30:41.175Z,46.71
2023-04-02T18:33:19.857Z,46.55
2023-04-02T18:36:19.465Z,46.10
2023-04-02T18:38:58.941Z,46.21
2023-04-02T18:41:46.222Z,46.44
2023-04-02T18:44:38.679Z,46.79
2023-04-02T18:47:27.517Z,47.23
2023-04-02T18:50:18.733Z,47.66
2023-04-02T18:52:46.120Z,47.29
2023-04-02T18:55:18.089Z,47.09
2023-04-02T18:57:46.477Z,47.21
2023-04-02T19:00:27.313Z,47.23
2023-04-02T19:03:06.044Z,47.13
2023-04-02T19:05:35.759Z,47.34
2023-04-02T19:08:24.708Z,47.55
2023-04-02T19:10:54.654Z,47.81
2023-04-02T19:13:21.536Z,47.52
2023-04-02T19:15:54.330Z,47.91
2023-04-02T19:18:35.495Z,48.30
2023-04-02T19:21:24.831Z,48.51
2023-04-02T19:24:13.101Z,48.42
2023-04-02T19:26:49.589Z,48.36
2023-04-02T19:29:19.598Z,48.79
2023-04-02T19:32:21.134Z,49.03
2023-04-02T19:35:13.611Z,48.71
2023-04-02T19:37:43.301Z,48.41
2023-04-02T19:40:51.648Z,48.86
2023-04-02T19:43:18.401Z,49.13
2023-04-02T19:45:47.837Z,49.17
2023-04-02T19:48:21.768Z,48.70
2023-04-02T19:50:48.864Z,48.67
2023-04-02T19:53:15.618Z,48.71
2023-04-02T19:55:43.121Z,48.77
2023-04-02T19:58:23.305Z,49.01
2023-04-02T20:00:50.261Z,49.60
2023-04-02T20:03:16.780Z,49.47
2023-04-02T20:05:43.545Z,49.55
2023-04-02T20:08:11.004Z,49.82
2023-04-02T20:10:37.985Z,50.33
2023-04-02T20:13:04.727Z,50.24
2023-04-02T20:15:31.259Z,50.46
2023-04-02T20:17:58.041Z,50.84
2023-04-02T20:20:24.540Z,51.02
2023-04-02T20:22:51.128Z,50.98
2023-04-02T20:25:17.884Z,51.25
2023-04-02T20:27:44.365Z,51.17
2023-04-02T20:30:11.393Z,51.89
2023-04-02T20:32:38.346Z,51.58
2023-04-02T20:35:05.982Z,51.87
2023-04-02T20:37:32.767Z,52.06
2023-04-02T20:39:59.437Z,52.31
2023-04-02T20:42:26.348Z,52.12
2023-04-02T20:44:52.855Z,51.84
2023-04-02T20:47:19.428Z,51.81
2023-04-02T20:49:45.939Z,51.09
2023-04-02T20:52:12.450Z,51.06
2023-04-02T20:54:38.918Z,51.66
2023-04-02T20:57:05.479Z,51.17
2023-04-02T20:59:32.048Z,50.82
2023-04-02T21:01:58.598Z,51.67
2023-04-02T21:04:25.714Z,50.89
2023-04-02T21:06:56.837Z,51.08
2023-04-02T21:09:23.965Z,51.42
2023-04-02T21:11:50.585Z,51.64
2023-04-02T21:14:17.784Z,52.67
2023-04-02T21:16:44.715Z,51.89
2023-04-02T21:19:11.784Z,52.07
2023-04-02T21:21:39.336Z,52.58
2023-04-02T21:24:08.479Z,52.81
2023-04-02T21:26:38.209Z,52.90
2023-04-02T21:29:06.057Z,53.28
2023-04-02T21:31:37.535Z,53.29
2023-04-02T21:34:06.018Z,53.51
2023-04-02T21:36:34.833Z,53.87
2023-04-02T21:39:24.117Z,53.49
2023-04-02T21:41:53.131Z,53.02
2023-04-02T21:44:22.142Z,54.29
2023-04-02T21:46:51.821Z,53.55
2023-04-02T21:49:21.951Z,53.30
2023-04-02T21:51:49.172Z,54.99
2023-04-02T21:54:16.736Z,55.18
2023-04-02T21:56:45.194Z,54.57
2023-04-02T21:59:13.624Z,54.51
2023-04-02T22:01:42.334Z,54.36
2023-04-02T22:04:09.848Z,54.21
2023-04-02T22:06:39.421Z,54.28
2023-04-02T22:09:12.427Z,54.50
2023-04-02T22:11:43.224Z,54.11
2023-04-02T22:14:10.049Z,54.76
2023-04-02T22:16:37.387Z,54.99
2023-04-02T22:19:08.945Z,54.77
2023-04-02T22:21:36.531Z,54.22
2023-04-02T22:24:06.109Z,54.44
2023-04-02T22:26:33.479Z,54.69
2023-04-02T22:29:00.630Z,54.11
2023-04-02T22:31:29.849Z,55.03
2023-04-02T22:33:57.611Z,54.75
2023-04-02T22:36:25.806Z,54.46
2023-04-02T22:38:52.577Z,54.69
2023-04-02T22:41:22.013Z,54.01
2023-04-02T22:43:49.259Z,54.39
2023-04-02T22:46:17.113Z,54.54
2023-04-02T22:48:44.416Z,54.49
2023-04-02T22:51:12.854Z,54.30
2023-04-02T22:53:39.789Z,54.48
2023-04-02T22:56:07.839Z,54.63
2023-04-02T22:58:34.842Z,54.56
2023-04-02T23:01:11.924Z,54.40
2023-04-02T23:03:38.586Z,54.49
2023-04-02T23:06:08.877Z,54.63
2023-04-02T23:08:36.755Z,54.27
2023-04-02T23:11:17.953Z,54.29
2023-04-02T23:13:46.847Z,54.71
2023-04-02T23:16:14.319Z,54.56
2023-04-02T23:18:42.796Z,54.24
2023-04-02T23:21:09.551Z,54.29
2023-04-02T23:23:36.757Z,54.38
2023-04-02T23:26:06.273Z,54.72
2023-04-02T23:28:33.152Z,54.01
2023-04-02T23:31:01.745Z,54.92
2023-04-02T23:33:28.257Z,54.48
2023-04-02T23:35:54.844Z,54.33
2023-04-02T23:38:21.534Z,54.14
2023-04-02T23:40:48.025Z,54.09
2023-04-02T23:43:14.551Z,54.58
2023-04-02T23:45:41.376Z,54.62
2023-04-02T23:48:07.981Z,55.08
2023-04-02T23:50:35.283Z,55.24
2023-04-02T23:53:01.979Z,55.01
2023-04-02T23:55:28.481Z,54.64
2023-04-02T23:57:54.993Z,54.72
